KMFE/MFE METAR and TAF weather

Enter ICAO airport designator
Station Type Date Time Source
KMFE METAR 2019/08/23 14:53 UTC NOAA

KMFE 231453Z 17006KT 10SM CLR 32/23 A2986 RMK AO2 SLP110 T03170228 50000


Station Type Date Time Source
KMFE Decoded METAR 2019/08/23 14:53 UTC NOAA

Station name not available
Aug 23, 2019 - 10:53 AM EDT / 2019.08.23 1453 UTC
Wind: from the S (170 degrees) at 7 MPH (6 KT):0
Visibility: 10 mile(s):0
Sky conditions: clear
Temperature: 89.1 F (31.7 C)
Heat index: 97.0 F (36.1 C):1
Dew Point: 73.0 F (22.8 C)
Relative Humidity: 59%
Pressure (altimeter): 29.86 in. Hg (1011 hPa)
Pressure tendency: 0.00 inches (0.0 hPa) higher than three hours ago
ob: KMFE 231453Z 17006KT 10SM CLR 32/23 A2986 RMK AO2 SLP110 T03170228 50000
cycle: 15

Station Type Date Time Source
KMFE TAF 2019/08/23 12:22 UTC NOAA

TAF KMFE 231120Z 2312/2412 14009KT P6SM SCT050
FM231600 11012G28KT P6SM SCT050
FM240500 14010KT P6SM SCT250

Example: see airport list